Flight Track Log - Related Links

Times and Time Zones

All times are in EDT time to prevent confusion due to time zone crossing. See the EJA922 flight status page for this flight to view local times or setup timezone preferences in your user account.

Time Position Orientation Groundspeed Altitude Reporting Facility
EDT Latitude Longitude Course Direction KTS MPH feet Rate Location/Type
Wed 01:47:54 PM 40.2667 -74.8333 217° Southwest 173 199 1,100  Level Philadelphia TRACON
Wed 01:48:42 PM 40.2333 -74.8667 217° Southwest 220 253 2,800 2,667 Climbing Philadelphia TRACON
Wed 01:49:42 PM 40.2000 -74.9500 242° Southwest 247 284 5,900 2,000 Climbing Philadelphia TRACON
Wed 01:50:48 PM 40.1667 -75.0333 242° Southwest 248 285 7,000 619 Climbing Philadelphia TRACON
Wed 01:51:48 PM 40.1333 -75.1167 242° Southwest 266 306 7,200 1,211 Climbing Philadelphia TRACON
Wed 01:52:42 PM 40.1167 -75.2000 255° West 264 304 9,300 1,474 Climbing Philadelphia TRACON
Wed 01:53:42 PM 40.0667 -75.2833 232° Southwest 276 318 10,000 350 Climbing Philadelphia TRACON
Wed 01:54:42 PM 40.0333 -75.3667 242° Southwest 259 298 10,000  Level Philadelphia TRACON
Wed 01:55:42 PM 40.0000 -75.4500 242° Southwest 273 314 10,000  Level Philadelphia TRACON
Wed 01:57:04 PM 39.9528 -75.5828 245° Southwest 342 394 10,000 629 Level New York Center
Wed 01:58:05 PM 39.9158 -75.7183 250° West 356 410 11,500 1,636 Climbing New York Center
Wed 01:59:05 PM 39.9128 -75.8428 268° West 371 427 13,300 1,950 Climbing New York Center
Wed 02:00:05 PM 39.9125 -75.9889 270° West 376 433 15,400 2,000 Climbing New York Center
Wed 02:01:05 PM 39.9092 -76.1131 268° West 381 438 17,300 1,785 Climbing New York Center
Wed 02:02:06 PM 39.9111 -76.2514 271° West 381 438 19,000 1,780 Climbing New York Center
Wed 02:03:03 PM 39.9150 -76.3925 272° West 387 445 20,800 1,692 Climbing New York Center
Wed 02:04:03 PM 39.9228 -76.5339 274° West 387 445 22,300 1,488 Climbing New York Center
Wed 02:05:04 PM 39.9283 -76.6725 273° West 387 445 23,800 1,488 Climbing New York Center
Wed 02:06:04 PM 39.9333 -76.8192 273° West 387 445 25,300 1,438 Climbing New York Center
Wed 02:07:05 PM 39.9403 -76.9658 274° West 399 459 26,700 1,462 Climbing New York Center
Wed 02:08:03 PM 39.9450 -77.1153 272° West 409 471 28,200 1,525 Climbing New York Center
Wed 02:09:03 PM 39.9489 -77.2728 272° West 422 486 29,700 1,300 Climbing New York Center
Wed 02:10:03 PM 39.9550 -77.4250 273° West 427 491 30,800 1,076 Climbing New York Center
Wed 02:12:07 PM 39.9681 -77.7767 273° West 433 498 33,000 1,043 Climbing Cleveland Center
Wed 02:13:07 PM 39.9719 -77.9444 272° West 456 525 34,000 1,000 Climbing Cleveland Center
Wed 02:14:07 PM 39.9778 -78.1122 273° West 461 531 35,000 850 Climbing Cleveland Center
Wed 02:15:07 PM 39.9808 -78.2531 272° West 473 544 35,700 900 Climbing Cleveland Center
Wed 02:16:07 PM 39.9825 -78.4400 271° West 473 544 36,800 1,050 Climbing Cleveland Center
Wed 02:17:07 PM 39.9856 -78.6133 271° West 473 544 37,800 600 Climbing Cleveland Center
Wed 02:18:07 PM 39.9883 -78.7867 271° West 479 551 38,000 100 Climbing Cleveland Center
Wed 02:19:07 PM 39.9975 -78.9814 274° West 485 558 38,000  Level Cleveland Center
Wed 02:20:07 PM 40.0019 -79.1603 272° West 490 564 38,000  Level Cleveland Center
Wed 02:21:07 PM 40.0042 -79.3364 271° West 490 564 38,000  Level Cleveland Center
Wed 02:22:07 PM 40.0056 -79.4772 271° West 490 564 38,000  Level Cleveland Center
Wed 02:23:07 PM 40.0094 -79.6697 272° West 490 564 38,000  Level Cleveland Center
Wed 02:24:07 PM 40.0106 -79.8431 271° West 490 564 38,000  Level Cleveland Center
Wed 02:25:07 PM 40.0136 -80.0167 271° West 490 564 38,000  Level Cleveland Center
Wed 02:26:08 PM 40.0144 -80.1900 270° West 490 564 38,000  Level Cleveland Center
Wed 02:27:07 PM 40.0147 -80.3661 270° West 490 564 38,000  Level Cleveland Center
Wed 02:28:07 PM 40.0192 -80.5425 272° West 490 564 38,000  Level Cleveland Center
Wed 02:29:07 PM 40.0211 -80.7347 271° West 485 558 38,000  Level Cleveland Center
Wed 02:30:07 PM 40.0186 -80.9111 269° West 485 558 38,000  Level Cleveland Center
Wed 02:30:58 PM 40.0131 -81.0533 267° West 485 558 38,000  Level Indianapolis Center
Wed 02:32:00 PM 40.0108 -81.2289 269° West 481 554 38,000  Level Indianapolis Center
Wed 02:33:02 PM 40.0075 -81.4086 269° West 486 559 38,000  Level Indianapolis Center
Wed 02:34:04 PM 40.0039 -81.5867 269° West 485 558 38,000  Level Indianapolis Center
Wed 02:35:06 PM 39.9689 -81.7475 254° West 464 534 38,000  Level Indianapolis Center
Wed 02:36:08 PM 39.9200 -81.9036 248° West 461 531 38,000  Level Indianapolis Center
Wed 02:37:10 PM 39.8636 -82.0867 248° West 462 532 38,000  Level Indianapolis Center
Wed 02:38:12 PM 39.8158 -82.2419 248° West 459 528 38,000  Level Indianapolis Center
Wed 02:39:14 PM 39.7664 -82.3981 248° West 460 529 38,000 -240 Level Indianapolis Center
Wed 02:40:17 PM 39.7183 -82.5531 248° West 458 527 37,500 -480 Descending Indianapolis Center
Wed 02:41:19 PM 39.6697 -82.7078 248° West 457 526 37,000 -387 Descending Indianapolis Center
Wed 02:42:21 PM 39.6194 -82.8633 247° West 462 532 36,700 -629 Descending Indianapolis Center
Wed 02:43:23 PM 39.5711 -83.0161 248° West 456 525 35,700 -1,403 Descending Indianapolis Center
Wed 02:44:25 PM 39.5208 -83.1703 247° West 456 525 33,800 -2,081 Descending Indianapolis Center
Wed 02:45:27 PM 39.4714 -83.3253 248° West 458 527 31,400 -1,839 Descending Indianapolis Center
Wed 02:46:29 PM 39.4203 -83.4831 247° West 465 535 30,000 -677 Descending Indianapolis Center
Wed 02:47:31 PM 39.3619 -83.6650 248° West 464 534 30,000 -339 Level Indianapolis Center
Wed 02:48:33 PM 39.3128 -83.8139 247° West 449 517 29,300 -823 Descending Indianapolis Center
Wed 02:49:35 PM 39.2622 -83.9667 247° West 456 525 28,300 -1,016 Descending Indianapolis Center
Wed 02:50:37 PM 39.2111 -84.1211 247° West 461 531 27,200 -1,016 Descending Indianapolis Center
Wed 02:51:39 PM 39.1603 -84.2733 247° West 459 528 26,200 -1,210 Descending Indianapolis Center
Wed 02:52:41 PM 39.1117 -84.4208 247° West 447 514 24,700 -1,839 Descending Indianapolis Center
Wed 02:53:43 PM 39.0639 -84.5600 246° West 426 490 22,400 -2,278 Descending Indianapolis Center
Wed 02:54:29 PM 39.0333 -84.6667 250° West 410 472 20,600 -2,208 Descending Cincinnati TRACON
Wed 02:55:29 PM 38.9500 -84.7667 223° Southwest 376 433 18,500 -1,971 Descending Cincinnati TRACON
Wed 02:56:49 PM 38.8431 -84.8706 217° Southwest 353 406 16,000 -1,859 Descending Indianapolis Center
Wed 02:57:51 PM 38.7669 -84.9450 217° Southwest 346 398 14,100 -1,452 Descending Indianapolis Center
Wed 02:58:53 PM 38.6906 -85.0183 217° Southwest 344 396 13,000 -1,065 Descending Indianapolis Center
Wed 02:59:55 PM 38.5992 -85.1056 217° Southwest 378 435 11,900 -1,161 Descending Indianapolis Center
Wed 03:00:57 PM 38.5292 -85.1728 217° Southwest 321 369 10,600 -1,452 Descending Indianapolis Center
Wed 03:01:59 PM 38.4625 -85.2378 217° Southwest 277 319 8,900 -1,536 Descending Indianapolis Center
Wed 03:03:02 PM 38.4444 -85.3247 255° West 261 300 7,400 -1,392 Descending Indianapolis Center
Wed 03:04:04 PM 38.4325 -85.4136 260° West 256 295 6,000 -677 Descending Indianapolis Center
Wed 03:05:06 PM 38.4200 -85.5022 260° West 253 291 6,000  Level Indianapolis Center
Wed 03:06:08 PM 38.4069 -85.5944 260° West 261 300 6,000 -339 Level Indianapolis Center
Wed 03:07:10 PM 38.3944 -85.6797 259° West 254 292 5,300 -1,065 Descending Indianapolis Center
Wed 03:08:12 PM 38.3803 -85.7628 258° West 246 283 3,800 -1,161 Descending Indianapolis Center
Wed 03:09:14 PM 38.3156 -85.7764 189° South 217 250 2,900 -677 Descending Indianapolis Center
Wed 03:10:16 PM 38.2692 -85.7589 164° South 192 221 2,400 -670 Descending Indianapolis Center
Wed 03:12:31 PM 38.2000 -85.7333 164° South 134 154 700 -756 Descending Louisville TRACON
Wed 03:14:00 PM 38.1741 -85.7365 297° West  Level Estimated
Wed 03:21:00 PM 38.1741 -85.7365 297° West  Level Estimated

Login

Don't have an account? Register now (free) for customized features, flight alerts, and more!